sensor_id;sensor_type;location;lat;lon;timestamp;P1;durP1;ratioP1;P2;durP2;ratioP2
173;SDS011;75;48.784;9.364;2023-02-18T00:02:25;3.80;;;2.80;;
173;SDS011;75;48.784;9.364;2023-02-18T00:05:10;4.60;;;2.53;;
173;SDS011;75;48.784;9.364;2023-02-18T00:07:54;5.00;;;2.37;;
173;SDS011;75;48.784;9.364;2023-02-18T00:10:42;3.50;;;2.50;;
173;SDS011;75;48.784;9.364;2023-02-18T00:13:27;3.97;;;2.20;;
173;SDS011;75;48.784;9.364;2023-02-18T00:16:11;3.27;;;2.50;;
173;SDS011;75;48.784;9.364;2023-02-18T00:19:06;3.33;;;2.40;;
173;SDS011;75;48.784;9.364;2023-02-18T00:21:51;3.53;;;2.40;;
173;SDS011;75;48.784;9.364;2023-02-18T00:24:37;3.83;;;2.30;;
173;SDS011;75;48.784;9.364;2023-02-18T00:27:22;3.97;;;2.20;;
173;SDS011;75;48.784;9.364;2023-02-18T00:30:06;2.77;;;2.20;;
173;SDS011;75;48.784;9.364;2023-02-18T00:32:51;3.40;;;2.50;;
173;SDS011;75;48.784;9.364;2023-02-18T00:35:36;3.10;;;2.20;;
173;SDS011;75;48.784;9.364;2023-02-18T00:38:21;3.33;;;2.43;;
173;SDS011;75;48.784;9.364;2023-02-18T00:41:05;3.53;;;2.20;;
173;SDS011;75;48.784;9.364;2023-02-18T00:43:50;3.33;;;2.27;;
173;SDS011;75;48.784;9.364;2023-02-18T00:46:34;3.20;;;2.10;;
173;SDS011;75;48.784;9.364;2023-02-18T00:49:19;3.37;;;2.30;;
173;SDS011;75;48.784;9.364;2023-02-18T00:52:03;4.30;;;2.53;;
173;SDS011;75;48.784;9.364;2023-02-18T00:54:48;3.30;;;2.13;;
173;SDS011;75;48.784;9.364;2023-02-18T00:57:33;3.20;;;2.20;;
173;SDS011;75;48.784;9.364;2023-02-18T01:00:17;3.23;;;2.20;;
173;SDS011;75;48.784;9.364;2023-02-18T01:03:02;2.97;;;2.10;;
173;SDS011;75;48.784;9.364;2023-02-18T01:05:48;2.93;;;2.17;;
173;SDS011;75;48.784;9.364;2023-02-18T01:08:34;3.77;;;2.40;;
173;SDS011;75;48.784;9.364;2023-02-18T01:11:19;5.23;;;2.80;;
173;SDS011;75;48.784;9.364;2023-02-18T01:14:04;3.07;;;2.40;;
173;SDS011;75;48.784;9.364;2023-02-18T01:16:49;2.90;;;2.30;;
173;SDS011;75;48.784;9.364;2023-02-18T01:19:33;4.03;;;2.40;;
173;SDS011;75;48.784;9.364;2023-02-18T01:22:18;3.67;;;2.40;;
173;SDS011;75;48.784;9.364;2023-02-18T01:25:03;3.60;;;2.33;;
173;SDS011;75;48.784;9.364;2023-02-18T01:27:48;3.67;;;2.27;;
173;SDS011;75;48.784;9.364;2023-02-18T01:30:32;3.87;;;2.33;;
173;SDS011;75;48.784;9.364;2023-02-18T01:33:18;3.00;;;2.30;;
173;SDS011;75;48.784;9.364;2023-02-18T01:36:02;3.37;;;2.37;;
173;SDS011;75;48.784;9.364;2023-02-18T01:38:47;3.60;;;2.40;;
173;SDS011;75;48.784;9.364;2023-02-18T01:41:32;3.80;;;2.50;;
173;SDS011;75;48.784;9.364;2023-02-18T01:44:18;3.80;;;2.37;;
173;SDS011;75;48.784;9.364;2023-02-18T01:47:03;3.10;;;2.20;;
173;SDS011;75;48.784;9.364;2023-02-18T01:49:49;3.23;;;2.50;;
173;SDS011;75;48.784;9.364;2023-02-18T01:52:35;3.30;;;2.00;;
173;SDS011;75;48.784;9.364;2023-02-18T01:55:19;4.23;;;2.50;;
173;SDS011;75;48.784;9.364;2023-02-18T01:58:04;5.13;;;2.70;;
173;SDS011;75;48.784;9.364;2023-02-18T02:00:50;3.43;;;2.40;;
173;SDS011;75;48.784;9.364;2023-02-18T02:03:34;3.53;;;2.60;;
173;SDS011;75;48.784;9.364;2023-02-18T02:06:20;3.63;;;2.70;;
173;SDS011;75;48.784;9.364;2023-02-18T02:09:06;3.90;;;2.53;;
173;SDS011;75;48.784;9.364;2023-02-18T02:35:22;3.73;;;2.80;;
173;SDS011;75;48.784;9.364;2023-02-18T02:38:11;4.30;;;3.00;;
173;SDS011;75;48.784;9.364;2023-02-18T02:41:12;4.60;;;2.83;;
173;SDS011;75;48.784;9.364;2023-02-18T02:44:08;3.90;;;2.90;;
173;SDS011;75;48.784;9.364;2023-02-18T02:46:56;4.70;;;3.20;;
173;SDS011;75;48.784;9.364;2023-02-18T02:49:50;3.87;;;2.77;;
173;SDS011;75;48.784;9.364;2023-02-18T02:52:38;4.30;;;3.20;;
173;SDS011;75;48.784;9.364;2023-02-18T02:55:24;3.63;;;2.80;;
173;SDS011;75;48.784;9.364;2023-02-18T02:58:12;4.10;;;2.90;;
173;SDS011;75;48.784;9.364;2023-02-18T03:01:17;3.57;;;2.77;;
173;SDS011;75;48.784;9.364;2023-02-18T03:04:12;4.63;;;3.40;;
173;SDS011;75;48.784;9.364;2023-02-18T03:10:18;3.50;;;2.80;;
173;SDS011;75;48.784;9.364;2023-02-18T03:13:09;4.87;;;3.00;;
173;SDS011;75;48.784;9.364;2023-02-18T03:15:56;4.10;;;2.93;;
173;SDS011;75;48.784;9.364;2023-02-18T03:18:43;3.83;;;2.70;;
173;SDS011;75;48.784;9.364;2023-02-18T03:21:31;5.53;;;2.80;;
173;SDS011;75;48.784;9.364;2023-02-18T03:24:17;4.53;;;2.90;;
173;SDS011;75;48.784;9.364;2023-02-18T03:30:06;3.70;;;3.00;;
173;SDS011;75;48.784;9.364;2023-02-18T03:32:54;4.83;;;3.10;;
173;SDS011;75;48.784;9.364;2023-02-18T03:35:41;4.37;;;3.40;;
173;SDS011;75;48.784;9.364;2023-02-18T03:38:42;5.90;;;3.27;;
173;SDS011;75;48.784;9.364;2023-02-18T03:41:28;3.83;;;3.10;;
173;SDS011;75;48.784;9.364;2023-02-18T03:44:13;4.43;;;3.37;;
173;SDS011;75;48.784;9.364;2023-02-18T03:46:58;4.30;;;3.20;;
173;SDS011;75;48.784;9.364;2023-02-18T03:49:43;4.00;;;3.00;;
173;SDS011;75;48.784;9.364;2023-02-18T03:52:27;4.97;;;3.10;;
173;SDS011;75;48.784;9.364;2023-02-18T03:55:12;5.40;;;3.00;;
173;SDS011;75;48.784;9.364;2023-02-18T03:57:57;3.77;;;2.80;;
173;SDS011;75;48.784;9.364;2023-02-18T04:00:41;4.40;;;2.70;;
173;SDS011;75;48.784;9.364;2023-02-18T04:03:26;3.80;;;3.00;;
173;SDS011;75;48.784;9.364;2023-02-18T04:06:11;4.37;;;3.07;;
173;SDS011;75;48.784;9.364;2023-02-18T04:08:56;4.17;;;3.00;;
173;SDS011;75;48.784;9.364;2023-02-18T04:11:41;4.10;;;3.10;;
173;SDS011;75;48.784;9.364;2023-02-18T04:14:25;3.37;;;2.60;;
173;SDS011;75;48.784;9.364;2023-02-18T04:17:10;4.30;;;2.83;;
173;SDS011;75;48.784;9.364;2023-02-18T04:19:55;4.03;;;3.07;;
173;SDS011;75;48.784;9.364;2023-02-18T04:22:39;4.23;;;3.00;;
173;SDS011;75;48.784;9.364;2023-02-18T04:25:24;5.53;;;2.90;;
173;SDS011;75;48.784;9.364;2023-02-18T04:28:09;3.43;;;2.80;;
173;SDS011;75;48.784;9.364;2023-02-18T04:30:55;4.20;;;2.90;;
173;SDS011;75;48.784;9.364;2023-02-18T04:33:40;3.93;;;2.53;;
173;SDS011;75;48.784;9.364;2023-02-18T04:36:25;3.50;;;2.70;;
173;SDS011;75;48.784;9.364;2023-02-18T04:39:09;3.90;;;2.80;;
173;SDS011;75;48.784;9.364;2023-02-18T04:41:54;4.30;;;2.90;;
173;SDS011;75;48.784;9.364;2023-02-18T04:44:39;4.70;;;2.50;;
173;SDS011;75;48.784;9.364;2023-02-18T04:47:23;3.83;;;2.70;;
173;SDS011;75;48.784;9.364;2023-02-18T04:50:08;3.90;;;2.90;;
173;SDS011;75;48.784;9.364;2023-02-18T04:52:53;3.97;;;2.67;;
173;SDS011;75;48.784;9.364;2023-02-18T04:55:38;3.20;;;2.60;;
173;SDS011;75;48.784;9.364;2023-02-18T04:58:22;5.77;;;2.57;;
173;SDS011;75;48.784;9.364;2023-02-18T05:01:07;4.10;;;2.80;;
173;SDS011;75;48.784;9.364;2023-02-18T05:03:52;5.33;;;2.70;;
173;SDS011;75;48.784;9.364;2023-02-18T05:06:36;3.27;;;2.50;;
173;SDS011;75;48.784;9.364;2023-02-18T05:09:23;3.90;;;2.40;;
173;SDS011;75;48.784;9.364;2023-02-18T05:12:07;4.33;;;3.00;;
173;SDS011;75;48.784;9.364;2023-02-18T05:14:52;3.80;;;2.70;;
173;SDS011;75;48.784;9.364;2023-02-18T05:17:36;3.93;;;2.83;;
173;SDS011;75;48.784;9.364;2023-02-18T05:20:21;3.27;;;2.57;;
173;SDS011;75;48.784;9.364;2023-02-18T05:23:06;5.03;;;2.83;;
173;SDS011;75;48.784;9.364;2023-02-18T05:25:51;6.13;;;2.80;;
173;SDS011;75;48.784;9.364;2023-02-18T05:28:35;4.47;;;2.87;;
173;SDS011;75;48.784;9.364;2023-02-18T05:31:20;3.90;;;2.70;;
173;SDS011;75;48.784;9.364;2023-02-18T05:34:04;4.40;;;3.00;;
173;SDS011;75;48.784;9.364;2023-02-18T05:36:49;3.27;;;2.63;;
173;SDS011;75;48.784;9.364;2023-02-18T05:39:34;3.70;;;2.80;;
173;SDS011;75;48.784;9.364;2023-02-18T05:42:18;3.90;;;2.77;;
173;SDS011;75;48.784;9.364;2023-02-18T05:45:03;4.23;;;2.70;;
173;SDS011;75;48.784;9.364;2023-02-18T05:47:48;3.87;;;2.80;;
173;SDS011;75;48.784;9.364;2023-02-18T05:50:32;3.90;;;2.90;;
173;SDS011;75;48.784;9.364;2023-02-18T05:53:17;4.70;;;3.10;;
173;SDS011;75;48.784;9.364;2023-02-18T05:56:02;4.57;;;3.10;;
173;SDS011;75;48.784;9.364;2023-02-18T05:58:46;10.63;;;3.47;;
173;SDS011;75;48.784;9.364;2023-02-18T06:01:31;4.50;;;3.10;;
173;SDS011;75;48.784;9.364;2023-02-18T06:04:16;4.30;;;3.03;;
173;SDS011;75;48.784;9.364;2023-02-18T06:07:00;3.47;;;2.70;;
173;SDS011;75;48.784;9.364;2023-02-18T06:09:45;3.77;;;2.93;;
173;SDS011;75;48.784;9.364;2023-02-18T06:12:30;4.87;;;2.87;;
173;SDS011;75;48.784;9.364;2023-02-18T06:15:15;4.93;;;3.03;;
173;SDS011;75;48.784;9.364;2023-02-18T06:17:59;4.27;;;3.00;;
173;SDS011;75;48.784;9.364;2023-02-18T06:20:45;4.10;;;2.93;;
173;SDS011;75;48.784;9.364;2023-02-18T06:23:30;3.93;;;2.90;;
173;SDS011;75;48.784;9.364;2023-02-18T06:26:15;4.07;;;3.10;;
173;SDS011;75;48.784;9.364;2023-02-18T06:28:59;4.30;;;3.13;;
173;SDS011;75;48.784;9.364;2023-02-18T06:31:44;4.33;;;3.17;;
173;SDS011;75;48.784;9.364;2023-02-18T06:34:29;5.90;;;4.63;;
173;SDS011;75;48.784;9.364;2023-02-18T06:37:14;4.80;;;3.67;;
173;SDS011;75;48.784;9.364;2023-02-18T06:39:58;6.63;;;5.00;;
173;SDS011;75;48.784;9.364;2023-02-18T06:42:43;4.97;;;3.80;;
173;SDS011;75;48.784;9.364;2023-02-18T06:45:28;3.80;;;3.10;;
173;SDS011;75;48.784;9.364;2023-02-18T06:48:12;4.27;;;3.30;;
173;SDS011;75;48.784;9.364;2023-02-18T06:50:58;4.07;;;2.90;;
173;SDS011;75;48.784;9.364;2023-02-18T06:53:42;5.73;;;4.03;;
173;SDS011;75;48.784;9.364;2023-02-18T06:56:27;5.23;;;3.10;;
173;SDS011;75;48.784;9.364;2023-02-18T06:59:12;5.63;;;4.50;;
173;SDS011;75;48.784;9.364;2023-02-18T07:01:56;5.43;;;4.10;;
173;SDS011;75;48.784;9.364;2023-02-18T07:04:41;6.70;;;4.70;;
173;SDS011;75;48.784;9.364;2023-02-18T07:07:28;5.23;;;3.87;;
173;SDS011;75;48.784;9.364;2023-02-18T07:10:12;4.80;;;3.50;;
173;SDS011;75;48.784;9.364;2023-02-18T07:12:57;4.27;;;3.00;;
173;SDS011;75;48.784;9.364;2023-02-18T07:15:42;4.00;;;3.00;;
173;SDS011;75;48.784;9.364;2023-02-18T07:18:26;9.50;;;5.33;;
173;SDS011;75;48.784;9.364;2023-02-18T07:21:11;8.30;;;5.20;;
173;SDS011;75;48.784;9.364;2023-02-18T07:23:55;7.27;;;4.37;;
173;SDS011;75;48.784;9.364;2023-02-18T07:26:40;4.00;;;3.10;;
173;SDS011;75;48.784;9.364;2023-02-18T07:29:25;4.70;;;3.40;;
173;SDS011;75;48.784;9.364;2023-02-18T07:32:13;6.43;;;3.67;;
173;SDS011;75;48.784;9.364;2023-02-18T07:34:58;6.40;;;4.70;;
173;SDS011;75;48.784;9.364;2023-02-18T07:37:43;7.53;;;5.23;;
173;SDS011;75;48.784;9.364;2023-02-18T07:40:28;4.77;;;3.40;;
173;SDS011;75;48.784;9.364;2023-02-18T07:43:12;5.30;;;3.30;;
173;SDS011;75;48.784;9.364;2023-02-18T07:45:57;6.10;;;3.33;;
173;SDS011;75;48.784;9.364;2023-02-18T07:48:41;6.47;;;3.73;;
173;SDS011;75;48.784;9.364;2023-02-18T07:51:26;4.27;;;3.30;;
173;SDS011;75;48.784;9.364;2023-02-18T07:54:11;10.10;;;6.40;;
173;SDS011;75;48.784;9.364;2023-02-18T07:56:58;13.80;;;9.30;;
173;SDS011;75;48.784;9.364;2023-02-18T07:59:43;6.23;;;3.77;;
173;SDS011;75;48.784;9.364;2023-02-18T08:02:28;6.50;;;4.90;;
173;SDS011;75;48.784;9.364;2023-02-18T08:05:12;4.80;;;3.60;;
173;SDS011;75;48.784;9.364;2023-02-18T08:07:57;6.90;;;3.60;;
173;SDS011;75;48.784;9.364;2023-02-18T08:10:42;5.67;;;4.10;;
173;SDS011;75;48.784;9.364;2023-02-18T08:13:28;5.13;;;3.37;;
173;SDS011;75;48.784;9.364;2023-02-18T08:16:13;4.70;;;3.50;;
173;SDS011;75;48.784;9.364;2023-02-18T08:18:58;5.17;;;3.70;;
173;SDS011;75;48.784;9.364;2023-02-18T08:21:42;4.43;;;3.37;;
173;SDS011;75;48.784;9.364;2023-02-18T08:24:27;5.90;;;3.40;;
173;SDS011;75;48.784;9.364;2023-02-18T08:27:11;8.33;;;3.60;;
173;SDS011;75;48.784;9.364;2023-02-18T08:29:57;4.00;;;3.10;;
173;SDS011;75;48.784;9.364;2023-02-18T08:32:42;4.93;;;3.07;;
173;SDS011;75;48.784;9.364;2023-02-18T08:35:26;5.20;;;3.07;;
173;SDS011;75;48.784;9.364;2023-02-18T08:38:11;4.83;;;3.50;;
173;SDS011;75;48.784;9.364;2023-02-18T08:41:03;5.73;;;3.23;;
173;SDS011;75;48.784;9.364;2023-02-18T08:43:48;4.23;;;2.97;;
173;SDS011;75;48.784;9.364;2023-02-18T08:46:33;4.70;;;2.97;;
173;SDS011;75;48.784;9.364;2023-02-18T08:49:18;6.30;;;2.83;;
173;SDS011;75;48.784;9.364;2023-02-18T08:52:06;5.83;;;3.53;;
173;SDS011;75;48.784;9.364;2023-02-18T08:54:51;5.33;;;3.37;;
173;SDS011;75;48.784;9.364;2023-02-18T08:57:36;5.30;;;3.27;;
173;SDS011;75;48.784;9.364;2023-02-18T09:00:21;4.60;;;3.10;;
173;SDS011;75;48.784;9.364;2023-02-18T09:03:05;4.80;;;3.20;;
173;SDS011;75;48.784;9.364;2023-02-18T09:05:50;4.20;;;2.60;;
173;SDS011;75;48.784;9.364;2023-02-18T09:08:35;4.23;;;3.03;;
173;SDS011;75;48.784;9.364;2023-02-18T09:11:19;4.30;;;3.00;;
173;SDS011;75;48.784;9.364;2023-02-18T09:14:04;4.60;;;3.03;;
173;SDS011;75;48.784;9.364;2023-02-18T09:16:49;4.13;;;3.10;;
173;SDS011;75;48.784;9.364;2023-02-18T09:19:33;5.13;;;3.40;;
173;SDS011;75;48.784;9.364;2023-02-18T09:22:18;4.70;;;3.10;;
173;SDS011;75;48.784;9.364;2023-02-18T09:25:03;6.63;;;2.90;;
173;SDS011;75;48.784;9.364;2023-02-18T09:27:47;4.37;;;2.97;;
173;SDS011;75;48.784;9.364;2023-02-18T09:30:33;4.00;;;2.83;;
173;SDS011;75;48.784;9.364;2023-02-18T09:33:17;4.83;;;3.07;;
173;SDS011;75;48.784;9.364;2023-02-18T09:36:02;4.57;;;3.10;;
173;SDS011;75;48.784;9.364;2023-02-18T09:38:47;5.47;;;3.33;;
173;SDS011;75;48.784;9.364;2023-02-18T09:41:46;5.23;;;2.90;;
173;SDS011;75;48.784;9.364;2023-02-18T09:44:45;7.80;;;3.10;;
173;SDS011;75;48.784;9.364;2023-02-18T09:47:39;7.17;;;2.57;;
173;SDS011;75;48.784;9.364;2023-02-18T09:50:26;5.13;;;2.80;;
173;SDS011;75;48.784;9.364;2023-02-18T09:53:12;4.80;;;2.63;;
173;SDS011;75;48.784;9.364;2023-02-18T09:55:57;4.00;;;2.73;;
173;SDS011;75;48.784;9.364;2023-02-18T09:58:43;4.33;;;2.87;;
173;SDS011;75;48.784;9.364;2023-02-18T10:01:39;4.40;;;3.13;;
173;SDS011;75;48.784;9.364;2023-02-18T10:04:29;3.67;;;2.70;;
173;SDS011;75;48.784;9.364;2023-02-18T10:07:31;5.23;;;2.97;;
173;SDS011;75;48.784;9.364;2023-02-18T10:10:20;7.53;;;2.60;;
173;SDS011;75;48.784;9.364;2023-02-18T10:13:19;6.33;;;2.90;;
173;SDS011;75;48.784;9.364;2023-02-18T10:16:04;6.17;;;2.83;;
173;SDS011;75;48.784;9.364;2023-02-18T10:18:50;5.30;;;2.90;;
173;SDS011;75;48.784;9.364;2023-02-18T10:21:36;3.37;;;2.53;;
173;SDS011;75;48.784;9.364;2023-02-18T10:27:29;4.13;;;2.70;;
173;SDS011;75;48.784;9.364;2023-02-18T10:33:45;5.90;;;2.50;;
173;SDS011;75;48.784;9.364;2023-02-18T10:39:01;3.30;;;2.33;;
173;SDS011;75;48.784;9.364;2023-02-18T10:41:53;3.33;;;2.40;;
173;SDS011;75;48.784;9.364;2023-02-18T10:44:51;6.27;;;3.00;;
173;SDS011;75;48.784;9.364;2023-02-18T10:47:42;3.43;;;2.30;;
173;SDS011;75;48.784;9.364;2023-02-18T10:50:41;3.30;;;2.30;;
173;SDS011;75;48.784;9.364;2023-02-18T10:53:32;4.40;;;2.57;;
173;SDS011;75;48.784;9.364;2023-02-18T10:56:30;4.30;;;2.50;;
173;SDS011;75;48.784;9.364;2023-02-18T10:59:22;5.03;;;2.87;;
173;SDS011;75;48.784;9.364;2023-02-18T11:02:13;3.30;;;2.20;;
173;SDS011;75;48.784;9.364;2023-02-18T11:04:59;3.10;;;2.20;;
173;SDS011;75;48.784;9.364;2023-02-18T11:07:49;3.93;;;2.50;;
173;SDS011;75;48.784;9.364;2023-02-18T11:10:37;3.30;;;2.50;;
173;SDS011;75;48.784;9.364;2023-02-18T11:13:26;3.73;;;2.47;;
173;SDS011;75;48.784;9.364;2023-02-18T11:16:11;3.83;;;2.50;;
173;SDS011;75;48.784;9.364;2023-02-18T11:18:56;3.50;;;2.50;;
173;SDS011;75;48.784;9.364;2023-02-18T11:21:47;5.77;;;3.93;;
173;SDS011;75;48.784;9.364;2023-02-18T11:24:31;8.00;;;4.67;;
173;SDS011;75;48.784;9.364;2023-02-18T11:33:05;3.67;;;2.60;;
173;SDS011;75;48.784;9.364;2023-02-18T11:35:52;3.30;;;2.20;;
173;SDS011;75;48.784;9.364;2023-02-18T11:38:42;3.10;;;2.30;;
173;SDS011;75;48.784;9.364;2023-02-18T11:41:29;3.40;;;2.20;;
173;SDS011;75;48.784;9.364;2023-02-18T11:44:34;4.20;;;2.90;;
173;SDS011;75;48.784;9.364;2023-02-18T11:47:32;4.60;;;2.63;;
173;SDS011;75;48.784;9.364;2023-02-18T11:50:20;2.97;;;2.27;;
173;SDS011;75;48.784;9.364;2023-02-18T11:56:15;6.00;;;3.60;;
173;SDS011;75;48.784;9.364;2023-02-18T11:59:01;3.90;;;2.70;;
173;SDS011;75;48.784;9.364;2023-02-18T12:01:46;5.87;;;2.70;;
173;SDS011;75;48.784;9.364;2023-02-18T12:04:47;3.07;;;2.30;;
173;SDS011;75;48.784;9.364;2023-02-18T12:07:40;3.23;;;2.20;;
173;SDS011;75;48.784;9.364;2023-02-18T12:10:27;3.67;;;2.00;;
173;SDS011;75;48.784;9.364;2023-02-18T12:16:06;4.20;;;2.53;;
173;SDS011;75;48.784;9.364;2023-02-18T12:31:21;3.70;;;2.47;;
173;SDS011;75;48.784;9.364;2023-02-18T12:34:19;2.87;;;2.27;;
173;SDS011;75;48.784;9.364;2023-02-18T12:40:05;5.27;;;2.60;;
173;SDS011;75;48.784;9.364;2023-02-18T12:42:53;4.10;;;2.30;;
173;SDS011;75;48.784;9.364;2023-02-18T12:48:37;3.97;;;2.40;;
173;SDS011;75;48.784;9.364;2023-02-18T12:51:31;7.40;;;5.40;;
173;SDS011;75;48.784;9.364;2023-02-18T12:54:33;8.47;;;4.10;;
173;SDS011;75;48.784;9.364;2023-02-18T12:57:42;5.73;;;3.60;;
173;SDS011;75;48.784;9.364;2023-02-18T13:12:14;4.00;;;2.57;;
173;SDS011;75;48.784;9.364;2023-02-18T13:15:02;3.83;;;2.60;;
173;SDS011;75;48.784;9.364;2023-02-18T13:17:48;3.77;;;2.80;;
173;SDS011;75;48.784;9.364;2023-02-18T13:23:27;4.43;;;3.27;;
173;SDS011;75;48.784;9.364;2023-02-18T13:26:13;4.20;;;2.80;;
173;SDS011;75;48.784;9.364;2023-02-18T13:32:15;4.50;;;3.03;;
173;SDS011;75;48.784;9.364;2023-02-18T13:41:00;5.60;;;3.50;;
173;SDS011;75;48.784;9.364;2023-02-18T13:43:45;4.07;;;3.00;;
173;SDS011;75;48.784;9.364;2023-02-18T13:46:34;4.10;;;3.07;;
173;SDS011;75;48.784;9.364;2023-02-18T13:49:31;4.90;;;3.20;;
173;SDS011;75;48.784;9.364;2023-02-18T13:52:17;4.20;;;3.20;;
173;SDS011;75;48.784;9.364;2023-02-18T13:55:03;4.50;;;3.43;;
173;SDS011;75;48.784;9.364;2023-02-18T13:57:48;4.50;;;3.30;;
173;SDS011;75;48.784;9.364;2023-02-18T14:00:35;4.20;;;3.20;;
173;SDS011;75;48.784;9.364;2023-02-18T14:12:14;5.70;;;3.27;;
173;SDS011;75;48.784;9.364;2023-02-18T14:14:59;6.80;;;3.27;;
173;SDS011;75;48.784;9.364;2023-02-18T14:29:03;6.03;;;3.17;;
173;SDS011;75;48.784;9.364;2023-02-18T14:31:49;5.00;;;3.00;;
173;SDS011;75;48.784;9.364;2023-02-18T14:51:33;5.40;;;3.83;;
173;SDS011;75;48.784;9.364;2023-02-18T14:54:19;4.57;;;3.27;;
173;SDS011;75;48.784;9.364;2023-02-18T14:57:05;4.07;;;2.90;;
173;SDS011;75;48.784;9.364;2023-02-18T14:59:56;4.87;;;3.40;;
173;SDS011;75;48.784;9.364;2023-02-18T15:02:42;5.90;;;3.33;;
173;SDS011;75;48.784;9.364;2023-02-18T15:05:30;4.63;;;3.17;;
173;SDS011;75;48.784;9.364;2023-02-18T15:08:17;5.00;;;3.07;;
173;SDS011;75;48.784;9.364;2023-02-18T15:11:02;6.13;;;3.63;;
173;SDS011;75;48.784;9.364;2023-02-18T15:13:49;11.20;;;5.30;;
173;SDS011;75;48.784;9.364;2023-02-18T15:16:35;5.60;;;3.40;;
173;SDS011;75;48.784;9.364;2023-02-18T15:19:20;5.50;;;3.50;;
173;SDS011;75;48.784;9.364;2023-02-18T15:22:06;4.67;;;2.90;;
173;SDS011;75;48.784;9.364;2023-02-18T15:24:58;10.07;;;3.20;;
173;SDS011;75;48.784;9.364;2023-02-18T15:27:43;6.33;;;3.30;;
173;SDS011;75;48.784;9.364;2023-02-18T15:30:29;5.60;;;3.40;;
173;SDS011;75;48.784;9.364;2023-02-18T15:33:14;6.60;;;3.80;;
173;SDS011;75;48.784;9.364;2023-02-18T15:36:02;9.00;;;5.43;;
173;SDS011;75;48.784;9.364;2023-02-18T15:38:47;7.17;;;4.43;;
173;SDS011;75;48.784;9.364;2023-02-18T15:41:32;5.30;;;3.50;;
173;SDS011;75;48.784;9.364;2023-02-18T15:44:23;4.10;;;3.20;;
173;SDS011;75;48.784;9.364;2023-02-18T15:47:09;8.20;;;4.67;;
173;SDS011;75;48.784;9.364;2023-02-18T15:49:54;5.57;;;3.70;;
173;SDS011;75;48.784;9.364;2023-02-18T15:52:40;5.53;;;3.03;;
173;SDS011;75;48.784;9.364;2023-02-18T15:58:13;5.77;;;4.00;;
173;SDS011;75;48.784;9.364;2023-02-18T16:01:00;5.73;;;3.53;;
173;SDS011;75;48.784;9.364;2023-02-18T16:03:45;5.30;;;3.40;;
173;SDS011;75;48.784;9.364;2023-02-18T16:06:30;4.33;;;3.20;;
173;SDS011;75;48.784;9.364;2023-02-18T16:09:22;4.90;;;3.23;;
173;SDS011;75;48.784;9.364;2023-02-18T16:12:13;4.80;;;2.97;;
173;SDS011;75;48.784;9.364;2023-02-18T16:15:02;5.07;;;3.30;;
173;SDS011;75;48.784;9.364;2023-02-18T16:17:47;5.67;;;3.30;;
173;SDS011;75;48.784;9.364;2023-02-18T16:20:33;5.60;;;3.03;;
173;SDS011;75;48.784;9.364;2023-02-18T16:23:24;5.00;;;3.50;;
173;SDS011;75;48.784;9.364;2023-02-18T16:26:11;4.50;;;3.23;;
173;SDS011;75;48.784;9.364;2023-02-18T16:29:03;6.43;;;4.00;;
173;SDS011;75;48.784;9.364;2023-02-18T16:31:49;6.93;;;4.80;;
173;SDS011;75;48.784;9.364;2023-02-18T16:34:33;4.30;;;3.17;;
173;SDS011;75;48.784;9.364;2023-02-18T16:37:18;4.07;;;2.90;;
173;SDS011;75;48.784;9.364;2023-02-18T16:43:23;4.50;;;3.40;;
173;SDS011;75;48.784;9.364;2023-02-18T16:46:14;5.03;;;3.37;;
173;SDS011;75;48.784;9.364;2023-02-18T16:48:59;8.67;;;5.10;;
173;SDS011;75;48.784;9.364;2023-02-18T16:51:44;6.40;;;3.70;;
173;SDS011;75;48.784;9.364;2023-02-18T16:54:29;9.30;;;5.83;;
173;SDS011;75;48.784;9.364;2023-02-18T16:57:14;6.23;;;4.20;;
173;SDS011;75;48.784;9.364;2023-02-18T16:59:58;7.73;;;4.23;;
173;SDS011;75;48.784;9.364;2023-02-18T17:02:44;5.53;;;4.30;;
173;SDS011;75;48.784;9.364;2023-02-18T17:05:31;5.63;;;3.60;;
173;SDS011;75;48.784;9.364;2023-02-18T17:08:20;8.33;;;5.30;;
173;SDS011;75;48.784;9.364;2023-02-18T17:11:08;5.30;;;3.50;;
173;SDS011;75;48.784;9.364;2023-02-18T17:13:58;7.53;;;5.27;;
173;SDS011;75;48.784;9.364;2023-02-18T17:16:44;6.50;;;3.90;;
173;SDS011;75;48.784;9.364;2023-02-18T17:19:28;8.77;;;3.93;;
173;SDS011;75;48.784;9.364;2023-02-18T17:22:13;5.50;;;3.57;;
173;SDS011;75;48.784;9.364;2023-02-18T17:24:58;5.40;;;3.77;;
173;SDS011;75;48.784;9.364;2023-02-18T17:27:43;5.03;;;3.50;;
173;SDS011;75;48.784;9.364;2023-02-18T17:30:28;6.13;;;4.00;;
173;SDS011;75;48.784;9.364;2023-02-18T17:33:13;6.10;;;4.17;;
173;SDS011;75;48.784;9.364;2023-02-18T17:35:58;7.20;;;5.00;;
173;SDS011;75;48.784;9.364;2023-02-18T17:38:43;7.77;;;5.10;;
173;SDS011;75;48.784;9.364;2023-02-18T17:41:27;6.70;;;4.17;;
173;SDS011;75;48.784;9.364;2023-02-18T17:44:16;6.77;;;4.67;;
173;SDS011;75;48.784;9.364;2023-02-18T17:47:01;6.90;;;4.07;;
173;SDS011;75;48.784;9.364;2023-02-18T17:49:46;6.70;;;4.40;;
173;SDS011;75;48.784;9.364;2023-02-18T17:52:30;6.23;;;4.40;;
173;SDS011;75;48.784;9.364;2023-02-18T17:58:00;6.40;;;3.80;;
173;SDS011;75;48.784;9.364;2023-02-18T18:00:47;5.50;;;3.90;;
173;SDS011;75;48.784;9.364;2023-02-18T18:03:32;7.13;;;5.07;;
173;SDS011;75;48.784;9.364;2023-02-18T18:06:18;6.40;;;4.77;;
173;SDS011;75;48.784;9.364;2023-02-18T18:09:03;6.40;;;4.97;;
173;SDS011;75;48.784;9.364;2023-02-18T18:11:48;7.60;;;5.53;;
173;SDS011;75;48.784;9.364;2023-02-18T18:14:33;6.57;;;4.40;;
173;SDS011;75;48.784;9.364;2023-02-18T18:17:17;5.70;;;4.20;;
173;SDS011;75;48.784;9.364;2023-02-18T18:20:02;11.63;;;6.67;;
173;SDS011;75;48.784;9.364;2023-02-18T18:22:47;12.73;;;7.30;;
173;SDS011;75;48.784;9.364;2023-02-18T18:28:16;6.30;;;4.30;;
173;SDS011;75;48.784;9.364;2023-02-18T18:31:01;6.70;;;4.80;;
173;SDS011;75;48.784;9.364;2023-02-18T18:33:46;7.97;;;4.60;;
173;SDS011;75;48.784;9.364;2023-02-18T18:36:32;10.00;;;6.40;;
173;SDS011;75;48.784;9.364;2023-02-18T18:39:17;11.60;;;7.00;;
173;SDS011;75;48.784;9.364;2023-02-18T18:42:02;13.53;;;7.87;;
173;SDS011;75;48.784;9.364;2023-02-18T18:44:49;10.00;;;6.10;;
173;SDS011;75;48.784;9.364;2023-02-18T18:47:34;11.03;;;6.00;;
173;SDS011;75;48.784;9.364;2023-02-18T18:50:18;9.20;;;5.87;;
173;SDS011;75;48.784;9.364;2023-02-18T18:53:04;9.47;;;5.73;;
173;SDS011;75;48.784;9.364;2023-02-18T18:55:50;7.80;;;5.80;;
173;SDS011;75;48.784;9.364;2023-02-18T18:58:35;7.80;;;5.10;;
173;SDS011;75;48.784;9.364;2023-02-18T19:01:20;9.73;;;5.20;;
173;SDS011;75;48.784;9.364;2023-02-18T19:04:09;7.83;;;5.43;;
173;SDS011;75;48.784;9.364;2023-02-18T19:06:54;8.33;;;5.17;;
173;SDS011;75;48.784;9.364;2023-02-18T19:09:38;12.00;;;4.67;;
173;SDS011;75;48.784;9.364;2023-02-18T19:12:23;7.70;;;4.70;;
173;SDS011;75;48.784;9.364;2023-02-18T19:15:09;8.10;;;5.10;;
173;SDS011;75;48.784;9.364;2023-02-18T19:17:55;6.23;;;4.20;;
173;SDS011;75;48.784;9.364;2023-02-18T19:20:40;7.80;;;5.47;;
173;SDS011;75;48.784;9.364;2023-02-18T19:23:25;7.50;;;5.30;;
173;SDS011;75;48.784;9.364;2023-02-18T19:26:10;7.50;;;5.00;;
173;SDS011;75;48.784;9.364;2023-02-18T19:28:55;8.70;;;5.70;;
173;SDS011;75;48.784;9.364;2023-02-18T19:31:40;11.40;;;7.77;;
173;SDS011;75;48.784;9.364;2023-02-18T19:34:27;9.13;;;5.17;;
173;SDS011;75;48.784;9.364;2023-02-18T19:37:11;9.00;;;6.87;;
173;SDS011;75;48.784;9.364;2023-02-18T19:39:56;22.73;;;19.43;;
173;SDS011;75;48.784;9.364;2023-02-18T19:42:41;13.10;;;9.30;;
173;SDS011;75;48.784;9.364;2023-02-18T19:45:26;9.63;;;7.23;;
173;SDS011;75;48.784;9.364;2023-02-18T19:48:11;8.80;;;7.07;;
173;SDS011;75;48.784;9.364;2023-02-18T19:50:56;8.10;;;5.93;;
173;SDS011;75;48.784;9.364;2023-02-18T19:53:41;8.60;;;6.30;;
173;SDS011;75;48.784;9.364;2023-02-18T19:56:25;9.80;;;7.00;;
173;SDS011;75;48.784;9.364;2023-02-18T19:59:10;10.37;;;8.13;;
173;SDS011;75;48.784;9.364;2023-02-18T20:01:54;10.57;;;7.83;;
173;SDS011;75;48.784;9.364;2023-02-18T20:04:39;12.53;;;8.40;;
173;SDS011;75;48.784;9.364;2023-02-18T20:07:24;13.30;;;9.33;;
173;SDS011;75;48.784;9.364;2023-02-18T20:10:10;10.67;;;8.27;;
173;SDS011;75;48.784;9.364;2023-02-18T20:12:55;11.83;;;8.60;;
173;SDS011;75;48.784;9.364;2023-02-18T20:15:40;14.90;;;10.20;;
173;SDS011;75;48.784;9.364;2023-02-18T20:18:27;13.30;;;9.73;;
173;SDS011;75;48.784;9.364;2023-02-18T20:21:11;17.00;;;11.07;;
173;SDS011;75;48.784;9.364;2023-02-18T20:23:56;19.93;;;12.93;;
173;SDS011;75;48.784;9.364;2023-02-18T20:26:41;20.63;;;13.70;;